EZY5721 EGMC-LEAM
Flight info
| Callsign | EZY5721 |
|---|---|
| Flight time | 2h 23m |
| Altitude | 37000 |
| Route | DET M604 LYD UM189 WAFFU DCT SITET UN859 SOPIL DCT BALAN DCT LMG DCT PIMQO DCT AGN DCT ANETO DCT TURUV DCT GRAUS DCT LOBAR DCT SEROX DCT CASPE DCT MLA DCT CRETA DCT RIMES DCT SAURA DCT TATOS DCT PLANA DCT VLC DCT BEGOX DCT NARGO DCT RESTU N860 DOSEK |
| Aircraft | A20N/M-SDE2E3FGHIJ1RWXY/LB1 |
Departure
| Time | 2026-05-05 09:01 |
|---|---|
| Airport | London Southend Airport (EGMC) |
Arrival
| Time | 2026-05-05 11:25 |
|---|---|
| Airport | Almería Airport (LEAM) |
| Time | Latitude | Longitude | Altitude | Speed | Heading |
|---|---|---|---|---|---|
| 2026-05-05 08:34 | 51.57043 | 0.70292 | 54 ft | 0 kts | 93° |
| 2026-05-05 08:51 | 51.57045 | 0.70260 | 53 ft | 4 kts | 104° |
| 2026-05-05 08:51 | 51.57055 | 0.70223 | 48 ft | 4 kts | 145° |
| 2026-05-05 08:51 | 51.57069 | 0.70214 | 50 ft | 1 kts | 183° |
| 2026-05-05 08:55 | 51.57067 | 0.70214 | 53 ft | 1 kts | 182° |
| 2026-05-05 08:55 | 51.57010 | 0.70207 | 51 ft | 14 kts | 185° |
| 2026-05-05 08:55 | 51.56929 | 0.70186 | 52 ft | 10 kts | 204° |
| 2026-05-05 08:55 | 51.56885 | 0.70112 | 50 ft | 9 kts | 234° |
| 2026-05-05 08:56 | 51.56877 | 0.70000 | 53 ft | 12 kts | 278° |
| 2026-05-05 08:56 | 51.56891 | 0.69859 | 53 ft | 14 kts | 278° |
| 2026-05-05 08:56 | 51.56906 | 0.69699 | 52 ft | 15 kts | 279° |
| 2026-05-05 08:56 | 51.56920 | 0.69556 | 53 ft | 13 kts | 275° |
| 2026-05-05 08:57 | 51.56904 | 0.69397 | 54 ft | 15 kts | 260° |
| 2026-05-05 08:57 | 51.56871 | 0.69237 | 54 ft | 15 kts | 237° |
| 2026-05-05 08:57 | 51.56836 | 0.69142 | 54 ft | 8 kts | 256° |
| 2026-05-05 08:57 | 51.56864 | 0.69072 | 56 ft | 8 kts | 317° |
| 2026-05-05 08:58 | 51.56884 | 0.68990 | 58 ft | 13 kts | 254° |
| 2026-05-05 08:58 | 51.56809 | 0.68812 | 51 ft | 25 kts | 232° |
| 2026-05-05 08:58 | 51.56692 | 0.68556 | 55 ft | 26 kts | 233° |
| 2026-05-05 08:58 | 51.56628 | 0.68409 | 54 ft | 11 kts | 233° |
| 2026-05-05 08:59 | 51.56585 | 0.68318 | 54 ft | 12 kts | 232° |
| 2026-05-05 08:59 | 51.56525 | 0.68234 | 54 ft | 9 kts | 221° |
| 2026-05-05 08:59 | 51.56523 | 0.68212 | 54 ft | 1 kts | 278° |
| 2026-05-05 08:59 | 51.56526 | 0.68206 | 54 ft | 0 kts | 301° |
| 2026-05-05 09:00 | 51.56528 | 0.68203 | 54 ft | 1 kts | 317° |
| 2026-05-05 09:00 | 51.56549 | 0.68235 | 54 ft | 7 kts | 51° |
| 2026-05-05 09:00 | 51.56580 | 0.68303 | 48 ft | 30 kts | 55° |
| 2026-05-05 09:00 | 51.56827 | 0.68852 | 51 ft | 90 kts | 54° |
| 2026-05-05 09:01 | 51.57301 | 0.69902 | 55 ft | 138 kts | 53° |
| 2026-05-05 09:01 | 51.57873 | 0.71204 | 533 ft | 137 kts | 54° |
| 2026-05-05 09:01 | 51.58437 | 0.72491 | 988 ft | 150 kts | 53° |
| 2026-05-05 09:01 | 51.59057 | 0.73876 | 1517 ft | 152 kts | 53° |
| 2026-05-05 09:02 | 51.59621 | 0.75316 | 2114 ft | 154 kts | 73° |
| 2026-05-05 09:02 | 51.59530 | 0.77000 | 2639 ft | 156 kts | 120° |
| 2026-05-05 09:02 | 51.58669 | 0.78129 | 3018 ft | 175 kts | 163° |
| 2026-05-05 09:02 | 51.57397 | 0.78057 | 3441 ft | 195 kts | 196° |
| 2026-05-05 09:03 | 51.56086 | 0.77204 | 3884 ft | 215 kts | 206° |
| 2026-05-05 09:03 | 51.54667 | 0.76058 | 4290 ft | 239 kts | 207° |
| 2026-05-05 09:03 | 51.53102 | 0.74831 | 4794 ft | 259 kts | 205° |
| 2026-05-05 09:03 | 51.51417 | 0.73609 | 5403 ft | 273 kts | 204° |
| 2026-05-05 09:04 | 51.49666 | 0.72411 | 6297 ft | 276 kts | 203° |
| 2026-05-05 09:04 | 51.47873 | 0.71215 | 7176 ft | 279 kts | 202° |
| 2026-05-05 09:04 | 51.46080 | 0.70032 | 8023 ft | 283 kts | 202° |
| 2026-05-05 09:04 | 51.44231 | 0.68817 | 8876 ft | 287 kts | 202° |
| 2026-05-05 09:05 | 51.42389 | 0.67605 | 9705 ft | 290 kts | 202° |
| 2026-05-05 09:05 | 51.40494 | 0.66355 | 10430 ft | 299 kts | 202° |
| 2026-05-05 09:05 | 51.38513 | 0.65050 | 10736 ft | 321 kts | 202° |
| 2026-05-05 09:05 | 51.36390 | 0.63651 | 11066 ft | 340 kts | 202° |
| 2026-05-05 09:06 | 51.34257 | 0.62247 | 11763 ft | 344 kts | 202° |
| 2026-05-05 09:06 | 51.31966 | 0.61009 | 12536 ft | 348 kts | 189° |
| 2026-05-05 09:06 | 51.29566 | 0.61031 | 13246 ft | 351 kts | 168° |
| 2026-05-05 09:06 | 51.27291 | 0.62411 | 13952 ft | 355 kts | 151° |
| 2026-05-05 09:07 | 51.25130 | 0.64405 | 14662 ft | 358 kts | 149° |
| 2026-05-05 09:07 | 51.22975 | 0.66484 | 15363 ft | 362 kts | 149° |
| 2026-05-05 09:07 | 51.20818 | 0.68557 | 16045 ft | 365 kts | 149° |
| 2026-05-05 09:07 | 51.18638 | 0.70620 | 16696 ft | 368 kts | 149° |
| 2026-05-05 09:08 | 51.16416 | 0.72696 | 17332 ft | 371 kts | 150° |
| 2026-05-05 09:08 | 51.14186 | 0.74766 | 17947 ft | 374 kts | 150° |
| 2026-05-05 09:08 | 51.11916 | 0.76862 | 18563 ft | 377 kts | 150° |
| 2026-05-05 09:08 | 51.09654 | 0.78949 | 19158 ft | 380 kts | 150° |
| 2026-05-05 09:09 | 51.07343 | 0.81078 | 19731 ft | 383 kts | 150° |
| 2026-05-05 09:09 | 51.05039 | 0.83169 | 20286 ft | 386 kts | 154° |
| 2026-05-05 09:09 | 51.02476 | 0.84563 | 20826 ft | 388 kts | 170° |
| 2026-05-05 09:09 | 50.99812 | 0.84723 | 21347 ft | 390 kts | 187° |
| 2026-05-05 09:10 | 50.97152 | 0.83621 | 21842 ft | 393 kts | 204° |
| 2026-05-05 09:10 | 50.94817 | 0.81372 | 22357 ft | 396 kts | 218° |
| 2026-05-05 09:10 | 50.92670 | 0.78623 | 22825 ft | 400 kts | 218° |
| 2026-05-05 09:10 | 50.90496 | 0.75806 | 23329 ft | 402 kts | 218° |
| 2026-05-05 09:11 | 50.88332 | 0.73012 | 23813 ft | 405 kts | 218° |
| 2026-05-05 09:11 | 50.86122 | 0.70178 | 24277 ft | 408 kts | 218° |
| 2026-05-05 09:11 | 50.83929 | 0.67382 | 24744 ft | 410 kts | 218° |
| 2026-05-05 09:11 | 50.81685 | 0.64529 | 25207 ft | 412 kts | 218° |
| 2026-05-05 09:12 | 50.79458 | 0.61701 | 25655 ft | 414 kts | 218° |
| 2026-05-05 09:12 | 50.77190 | 0.58826 | 26069 ft | 416 kts | 218° |
| 2026-05-05 09:12 | 50.74939 | 0.55977 | 26471 ft | 418 kts | 218° |
| 2026-05-05 09:12 | 50.72654 | 0.53089 | 26883 ft | 420 kts | 218° |
| 2026-05-05 09:13 | 50.70372 | 0.50209 | 27256 ft | 422 kts | 218° |
| 2026-05-05 09:13 | 50.68060 | 0.47294 | 27621 ft | 424 kts | 218° |
| 2026-05-05 09:13 | 50.65765 | 0.44405 | 27969 ft | 426 kts | 218° |
| 2026-05-05 09:13 | 50.63431 | 0.41469 | 28337 ft | 428 kts | 218° |
| 2026-05-05 09:14 | 50.61118 | 0.38565 | 28662 ft | 430 kts | 218° |
| 2026-05-05 09:14 | 50.58694 | 0.35743 | 28977 ft | 431 kts | 213° |
| 2026-05-05 09:14 | 50.56112 | 0.33378 | 29270 ft | 433 kts | 206° |
| 2026-05-05 09:14 | 50.53371 | 0.31362 | 29539 ft | 434 kts | 204° |
| 2026-05-05 09:15 | 50.50642 | 0.29389 | 29821 ft | 436 kts | 205° |
| 2026-05-05 09:15 | 50.47862 | 0.27369 | 30127 ft | 438 kts | 205° |
| 2026-05-05 09:15 | 50.45110 | 0.25367 | 30403 ft | 440 kts | 205° |
| 2026-05-05 09:15 | 50.42303 | 0.23324 | 30681 ft | 441 kts | 205° |
| 2026-05-05 09:16 | 50.39524 | 0.21304 | 30963 ft | 443 kts | 204° |
| 2026-05-05 09:16 | 50.36749 | 0.19290 | 31270 ft | 443 kts | 204° |
| 2026-05-05 09:16 | 50.33929 | 0.17246 | 31635 ft | 442 kts | 204° |
| 2026-05-05 09:16 | 50.31162 | 0.15242 | 31998 ft | 441 kts | 204° |
| 2026-05-05 09:17 | 50.28359 | 0.13214 | 32342 ft | 440 kts | 204° |
| 2026-05-05 09:17 | 50.25601 | 0.11221 | 32689 ft | 439 kts | 204° |
| 2026-05-05 09:17 | 50.22821 | 0.09214 | 33026 ft | 437 kts | 204° |
| 2026-05-05 09:17 | 50.20075 | 0.07234 | 33330 ft | 437 kts | 204° |
| 2026-05-05 09:18 | 50.17301 | 0.05235 | 33622 ft | 436 kts | 204° |
| 2026-05-05 09:18 | 50.14571 | 0.03280 | 33917 ft | 435 kts | 202° |
| 2026-05-05 09:18 | 50.11701 | 0.01807 | 34195 ft | 433 kts | 191° |
| 2026-05-05 09:18 | 50.08700 | 0.01265 | 34416 ft | 433 kts | 180° |
| 2026-05-05 09:19 | 50.05723 | 0.01675 | 34590 ft | 434 kts | 168° |
| 2026-05-05 09:19 | 50.02763 | 0.02820 | 34790 ft | 435 kts | 166° |
| 2026-05-05 09:19 | 49.99861 | 0.03984 | 34998 ft | 435 kts | 166° |
| 2026-05-05 09:19 | 49.96924 | 0.05151 | 35181 ft | 436 kts | 166° |
| 2026-05-05 09:20 | 49.94009 | 0.06300 | 35377 ft | 436 kts | 166° |
| 2026-05-05 09:20 | 49.91044 | 0.07465 | 35568 ft | 436 kts | 166° |
| 2026-05-05 09:20 | 49.88127 | 0.08608 | 35731 ft | 436 kts | 166° |
| 2026-05-05 09:20 | 49.85166 | 0.09768 | 35880 ft | 437 kts | 166° |
| 2026-05-05 09:21 | 49.82199 | 0.10928 | 36063 ft | 437 kts | 166° |
| 2026-05-05 09:21 | 49.79270 | 0.12071 | 36227 ft | 438 kts | 166° |
| 2026-05-05 09:21 | 49.76293 | 0.13232 | 36381 ft | 438 kts | 166° |
| 2026-05-05 09:21 | 49.73362 | 0.14373 | 36530 ft | 439 kts | 166° |
| 2026-05-05 09:22 | 49.70397 | 0.15526 | 36771 ft | 435 kts | 166° |
| 2026-05-05 09:22 | 49.64628 | 0.17800 | 36911 ft | 429 kts | 166° |
| 2026-05-05 09:23 | 49.58812 | 0.20157 | 36913 ft | 430 kts | 166° |
| 2026-05-05 09:23 | 49.53061 | 0.22478 | 36921 ft | 430 kts | 166° |
| 2026-05-05 09:24 | 49.47261 | 0.24808 | 36912 ft | 430 kts | 166° |
| 2026-05-05 09:24 | 49.41469 | 0.27124 | 36916 ft | 430 kts | 166° |
| 2026-05-05 09:25 | 49.35669 | 0.29439 | 36920 ft | 430 kts | 166° |
| 2026-05-05 09:25 | 49.29876 | 0.31750 | 36917 ft | 430 kts | 165° |
| 2026-05-05 09:26 | 49.24132 | 0.34171 | 36916 ft | 431 kts | 165° |
| 2026-05-05 09:26 | 49.18343 | 0.36634 | 36913 ft | 430 kts | 165° |
| 2026-05-05 09:27 | 49.12576 | 0.39062 | 36904 ft | 430 kts | 165° |
| 2026-05-05 09:27 | 49.06824 | 0.41470 | 36916 ft | 430 kts | 165° |
| 2026-05-05 09:28 | 49.01058 | 0.43880 | 36906 ft | 430 kts | 165° |
| 2026-05-05 09:28 | 48.95313 | 0.46277 | 36901 ft | 430 kts | 165° |
| 2026-05-05 09:29 | 48.89548 | 0.48677 | 36885 ft | 430 kts | 165° |
| 2026-05-05 09:29 | 48.83780 | 0.51070 | 36887 ft | 429 kts | 165° |
| 2026-05-05 09:30 | 48.78029 | 0.53450 | 36888 ft | 429 kts | 165° |
| 2026-05-05 09:30 | 48.72263 | 0.55721 | 36888 ft | 429 kts | 166° |
| 2026-05-05 09:31 | 48.66501 | 0.57960 | 36877 ft | 429 kts | 166° |
| 2026-05-05 09:31 | 48.60724 | 0.60212 | 36877 ft | 429 kts | 166° |
| 2026-05-05 09:32 | 48.54967 | 0.62458 | 36876 ft | 429 kts | 166° |
| 2026-05-05 09:32 | 48.49176 | 0.64736 | 36875 ft | 429 kts | 165° |
| 2026-05-05 09:33 | 48.43450 | 0.67082 | 36870 ft | 429 kts | 165° |
| 2026-05-05 09:33 | 48.37687 | 0.69433 | 36869 ft | 429 kts | 165° |
| 2026-05-05 09:34 | 48.31928 | 0.71769 | 36869 ft | 429 kts | 165° |
| 2026-05-05 09:34 | 48.26151 | 0.74101 | 36851 ft | 429 kts | 165° |
| 2026-05-05 09:35 | 48.20392 | 0.76393 | 36855 ft | 429 kts | 166° |
| 2026-05-05 09:35 | 48.11721 | 0.79792 | 36853 ft | 429 kts | 166° |
| 2026-05-05 09:36 | 48.05951 | 0.82053 | 36855 ft | 429 kts | 166° |
| 2026-05-05 09:36 | 48.00159 | 0.84318 | 36849 ft | 430 kts | 166° |
| 2026-05-05 09:37 | 47.94343 | 0.86589 | 36843 ft | 430 kts | 166° |
| 2026-05-05 09:37 | 47.89553 | 0.88455 | 36842 ft | 430 kts | 166° |
| 2026-05-05 09:38 | 47.83767 | 0.90701 | 36840 ft | 429 kts | 166° |
| 2026-05-05 09:38 | 47.77974 | 0.92947 | 36837 ft | 429 kts | 166° |
| 2026-05-05 09:39 | 47.72207 | 0.95180 | 36844 ft | 429 kts | 166° |
| 2026-05-05 09:39 | 47.66440 | 0.97406 | 36844 ft | 429 kts | 166° |
| 2026-05-05 09:40 | 47.60661 | 0.99630 | 36848 ft | 429 kts | 166° |
| 2026-05-05 09:40 | 47.54884 | 1.01849 | 36850 ft | 429 kts | 166° |
| 2026-05-05 09:41 | 47.49080 | 1.04074 | 36852 ft | 429 kts | 166° |
| 2026-05-05 09:41 | 47.43257 | 1.05940 | 36852 ft | 429 kts | 173° |
| 2026-05-05 09:42 | 47.37301 | 1.06367 | 36846 ft | 429 kts | 181° |
| 2026-05-05 09:42 | 47.31341 | 1.06182 | 36846 ft | 429 kts | 181° |
| 2026-05-05 09:43 | 47.25383 | 1.06032 | 36855 ft | 429 kts | 181° |
| 2026-05-05 09:43 | 47.19404 | 1.05891 | 36855 ft | 429 kts | 181° |
| 2026-05-05 09:44 | 47.13432 | 1.05754 | 36852 ft | 429 kts | 181° |
| 2026-05-05 09:44 | 47.07467 | 1.05614 | 36857 ft | 430 kts | 181° |
| 2026-05-05 09:45 | 47.01488 | 1.05474 | 36858 ft | 430 kts | 181° |
| 2026-05-05 09:45 | 46.95496 | 1.05223 | 36859 ft | 431 kts | 182° |
| 2026-05-05 09:46 | 46.89520 | 1.04947 | 36860 ft | 431 kts | 182° |
| 2026-05-05 09:46 | 46.83529 | 1.04686 | 36863 ft | 431 kts | 182° |
| 2026-05-05 09:47 | 46.77527 | 1.04430 | 36872 ft | 431 kts | 182° |
| 2026-05-05 09:47 | 46.71521 | 1.04175 | 36870 ft | 432 kts | 182° |
| 2026-05-05 09:48 | 46.65517 | 1.03920 | 36872 ft | 432 kts | 182° |
| 2026-05-05 09:48 | 46.59551 | 1.03668 | 36880 ft | 432 kts | 182° |
| 2026-05-05 09:49 | 46.53547 | 1.03415 | 36880 ft | 431 kts | 182° |
| 2026-05-05 09:49 | 46.47567 | 1.03233 | 36885 ft | 432 kts | 180° |
| 2026-05-05 09:50 | 46.41521 | 1.03200 | 36886 ft | 432 kts | 180° |
| 2026-05-05 09:50 | 46.35530 | 1.03150 | 36887 ft | 432 kts | 180° |
| 2026-05-05 09:51 | 46.29504 | 1.03086 | 36894 ft | 432 kts | 180° |
| 2026-05-05 09:51 | 46.23482 | 1.03017 | 36897 ft | 432 kts | 181° |
| 2026-05-05 09:52 | 46.17482 | 1.02952 | 36907 ft | 432 kts | 181° |
| 2026-05-05 09:52 | 46.11473 | 1.02887 | 36911 ft | 433 kts | 181° |
| 2026-05-05 09:53 | 46.05482 | 1.02821 | 36910 ft | 433 kts | 181° |
| 2026-05-05 09:53 | 45.99432 | 1.02754 | 36911 ft | 433 kts | 181° |
| 2026-05-05 09:54 | 45.93402 | 1.02687 | 36917 ft | 433 kts | 181° |
| 2026-05-05 09:54 | 45.87390 | 1.02622 | 36914 ft | 433 kts | 181° |
| 2026-05-05 09:55 | 45.81388 | 1.02770 | 36916 ft | 433 kts | 175° |
| 2026-05-05 09:55 | 45.75433 | 1.04112 | 36915 ft | 434 kts | 170° |
| 2026-05-05 09:56 | 45.69500 | 1.05668 | 36922 ft | 434 kts | 171° |
| 2026-05-05 09:56 | 45.63532 | 1.07207 | 36922 ft | 434 kts | 171° |
| 2026-05-05 09:57 | 45.57615 | 1.08724 | 36929 ft | 434 kts | 171° |
| 2026-05-05 09:57 | 45.51642 | 1.10249 | 36930 ft | 434 kts | 171° |
| 2026-05-05 09:58 | 45.45712 | 1.11763 | 36926 ft | 434 kts | 171° |
| 2026-05-05 09:58 | 45.39765 | 1.13278 | 36933 ft | 434 kts | 171° |
| 2026-05-05 09:59 | 45.33831 | 1.14784 | 36932 ft | 433 kts | 171° |
| 2026-05-05 09:59 | 45.27922 | 1.16281 | 36933 ft | 433 kts | 171° |
| 2026-05-05 10:00 | 45.21988 | 1.17783 | 36935 ft | 433 kts | 171° |
| 2026-05-05 10:00 | 45.15972 | 1.18582 | 36938 ft | 432 kts | 181° |
| 2026-05-05 10:01 | 45.10008 | 1.17855 | 36935 ft | 430 kts | 191° |
| 2026-05-05 10:01 | 45.04130 | 1.16302 | 36937 ft | 430 kts | 191° |
| 2026-05-05 10:02 | 44.98271 | 1.14789 | 36936 ft | 430 kts | 191° |
| 2026-05-05 10:02 | 44.92380 | 1.13283 | 36935 ft | 430 kts | 191° |
| 2026-05-05 10:03 | 44.86498 | 1.11782 | 36936 ft | 430 kts | 191° |
| 2026-05-05 10:03 | 44.80583 | 1.10275 | 36937 ft | 430 kts | 191° |
| 2026-05-05 10:04 | 44.74745 | 1.08791 | 36943 ft | 429 kts | 191° |
| 2026-05-05 10:04 | 44.68850 | 1.07296 | 36945 ft | 429 kts | 191° |
| 2026-05-05 10:05 | 44.62994 | 1.05814 | 36944 ft | 429 kts | 191° |
| 2026-05-05 10:05 | 44.57093 | 1.04322 | 36954 ft | 429 kts | 191° |
| 2026-05-05 10:06 | 44.51231 | 1.02844 | 36952 ft | 429 kts | 191° |
| 2026-05-05 10:06 | 44.45360 | 1.01366 | 36953 ft | 429 kts | 191° |
| 2026-05-05 10:07 | 44.39498 | 0.99894 | 36949 ft | 429 kts | 191° |
| 2026-05-05 10:07 | 44.33665 | 0.98433 | 36959 ft | 428 kts | 191° |
| 2026-05-05 10:08 | 44.27801 | 0.96967 | 36957 ft | 428 kts | 191° |
| 2026-05-05 10:08 | 44.21912 | 0.95498 | 36958 ft | 429 kts | 191° |
| 2026-05-05 10:09 | 44.16053 | 0.94037 | 36959 ft | 429 kts | 191° |
| 2026-05-05 10:09 | 44.10157 | 0.92573 | 36968 ft | 429 kts | 191° |
| 2026-05-05 10:10 | 44.04319 | 0.91123 | 36968 ft | 429 kts | 191° |
| 2026-05-05 10:10 | 43.98422 | 0.89664 | 36969 ft | 429 kts | 191° |
| 2026-05-05 10:11 | 43.92567 | 0.88216 | 36970 ft | 428 kts | 192° |
| 2026-05-05 10:11 | 43.86685 | 0.86755 | 36971 ft | 427 kts | 192° |
| 2026-05-05 10:12 | 43.80873 | 0.85189 | 36971 ft | 427 kts | 193° |
| 2026-05-05 10:12 | 43.75034 | 0.83609 | 36970 ft | 427 kts | 193° |
| 2026-05-05 10:13 | 43.69218 | 0.82050 | 36970 ft | 427 kts | 192° |
| 2026-05-05 10:13 | 43.63402 | 0.80501 | 36971 ft | 427 kts | 192° |
| 2026-05-05 10:14 | 43.57557 | 0.78947 | 36969 ft | 427 kts | 192° |
| 2026-05-05 10:14 | 43.51734 | 0.77403 | 36972 ft | 427 kts | 192° |
| 2026-05-05 10:15 | 43.45880 | 0.75852 | 36972 ft | 427 kts | 193° |
| 2026-05-05 10:15 | 43.40049 | 0.74311 | 36980 ft | 427 kts | 193° |
| 2026-05-05 10:16 | 43.34214 | 0.72775 | 36979 ft | 427 kts | 193° |
| 2026-05-05 10:16 | 43.28389 | 0.71240 | 36987 ft | 427 kts | 193° |
| 2026-05-05 10:17 | 43.22570 | 0.69710 | 36985 ft | 426 kts | 193° |
| 2026-05-05 10:17 | 43.16735 | 0.68180 | 36985 ft | 426 kts | 193° |
| 2026-05-05 10:18 | 43.10931 | 0.66661 | 36986 ft | 426 kts | 193° |
| 2026-05-05 10:18 | 43.05115 | 0.65142 | 36986 ft | 426 kts | 193° |
| 2026-05-05 10:19 | 42.99306 | 0.63628 | 36984 ft | 425 kts | 193° |
| 2026-05-05 10:19 | 42.93477 | 0.62113 | 36982 ft | 425 kts | 193° |
| 2026-05-05 10:20 | 42.87685 | 0.60606 | 36982 ft | 424 kts | 193° |
| 2026-05-05 10:20 | 42.81908 | 0.59107 | 36981 ft | 423 kts | 193° |
| 2026-05-05 10:21 | 42.76132 | 0.57614 | 36978 ft | 422 kts | 193° |
| 2026-05-05 10:21 | 42.70331 | 0.56118 | 36979 ft | 422 kts | 193° |
| 2026-05-05 10:22 | 42.64560 | 0.54631 | 36981 ft | 423 kts | 193° |
| 2026-05-05 10:22 | 42.58801 | 0.53147 | 36977 ft | 423 kts | 193° |
| 2026-05-05 10:23 | 42.52981 | 0.51651 | 36991 ft | 424 kts | 193° |
| 2026-05-05 10:23 | 42.47210 | 0.50173 | 36980 ft | 422 kts | 193° |
| 2026-05-05 10:24 | 42.41470 | 0.48707 | 36979 ft | 421 kts | 193° |
| 2026-05-05 10:24 | 42.35724 | 0.47240 | 36978 ft | 421 kts | 193° |
| 2026-05-05 10:25 | 42.29942 | 0.45766 | 36980 ft | 420 kts | 193° |
| 2026-05-05 10:25 | 42.24209 | 0.44307 | 36979 ft | 420 kts | 193° |
| 2026-05-05 10:26 | 42.18474 | 0.42852 | 36981 ft | 420 kts | 193° |
| 2026-05-05 10:26 | 42.12740 | 0.41396 | 36979 ft | 420 kts | 193° |
| 2026-05-05 10:27 | 42.06978 | 0.39939 | 36970 ft | 420 kts | 193° |
| 2026-05-05 10:27 | 42.01259 | 0.38495 | 36969 ft | 419 kts | 193° |
| 2026-05-05 10:28 | 41.95539 | 0.37054 | 36972 ft | 419 kts | 193° |
| 2026-05-05 10:28 | 41.90750 | 0.35849 | 36970 ft | 419 kts | 193° |
| 2026-05-05 10:29 | 41.85037 | 0.34414 | 36970 ft | 419 kts | 193° |
| 2026-05-05 10:29 | 41.79278 | 0.32969 | 36970 ft | 419 kts | 193° |
| 2026-05-05 10:30 | 41.73554 | 0.31537 | 36969 ft | 419 kts | 193° |
| 2026-05-05 10:30 | 41.67828 | 0.30106 | 36968 ft | 419 kts | 193° |
| 2026-05-05 10:31 | 41.62114 | 0.28683 | 36968 ft | 419 kts | 193° |
| 2026-05-05 10:31 | 41.56364 | 0.27251 | 36969 ft | 419 kts | 193° |
| 2026-05-05 10:32 | 41.50681 | 0.25838 | 36969 ft | 418 kts | 193° |
| 2026-05-05 10:32 | 41.44940 | 0.24415 | 36962 ft | 419 kts | 193° |
| 2026-05-05 10:33 | 41.39231 | 0.22998 | 36961 ft | 419 kts | 193° |
| 2026-05-05 10:33 | 41.33476 | 0.21577 | 36961 ft | 418 kts | 193° |
| 2026-05-05 10:34 | 41.27772 | 0.20169 | 36960 ft | 418 kts | 193° |
| 2026-05-05 10:34 | 41.22032 | 0.18755 | 36963 ft | 418 kts | 194° |
| 2026-05-05 10:35 | 41.16349 | 0.17361 | 36961 ft | 418 kts | 193° |
| 2026-05-05 10:35 | 41.10685 | 0.15640 | 36963 ft | 415 kts | 200° |
| 2026-05-05 10:36 | 41.05180 | 0.13392 | 36973 ft | 415 kts | 200° |
| 2026-05-05 10:36 | 40.99640 | 0.11150 | 36975 ft | 416 kts | 200° |
| 2026-05-05 10:37 | 40.94117 | 0.08927 | 36980 ft | 416 kts | 200° |
| 2026-05-05 10:37 | 40.88559 | 0.06695 | 36981 ft | 416 kts | 200° |
| 2026-05-05 10:38 | 40.83042 | 0.04483 | 36972 ft | 416 kts | 200° |
| 2026-05-05 10:38 | 40.77522 | 0.02272 | 36963 ft | 414 kts | 200° |
| 2026-05-05 10:39 | 40.72015 | 0.00072 | 36951 ft | 413 kts | 200° |
| 2026-05-05 10:39 | 40.66491 | -0.02136 | 36954 ft | 419 kts | 200° |
| 2026-05-05 10:40 | 40.60905 | -0.04360 | 36953 ft | 419 kts | 200° |
| 2026-05-05 10:40 | 40.55331 | -0.06573 | 36953 ft | 419 kts | 200° |
| 2026-05-05 10:41 | 40.49742 | -0.08793 | 36952 ft | 419 kts | 200° |
| 2026-05-05 10:41 | 40.44172 | -0.11000 | 36951 ft | 419 kts | 200° |
| 2026-05-05 10:42 | 40.35819 | -0.14303 | 36961 ft | 418 kts | 200° |
| 2026-05-05 10:43 | 40.30244 | -0.16503 | 36963 ft | 419 kts | 200° |
| 2026-05-05 10:43 | 40.24645 | -0.18709 | 36961 ft | 419 kts | 200° |
| 2026-05-05 10:44 | 40.19074 | -0.20901 | 36959 ft | 419 kts | 200° |
| 2026-05-05 10:44 | 40.13472 | -0.23099 | 36958 ft | 419 kts | 200° |
| 2026-05-05 10:45 | 40.07908 | -0.25279 | 36957 ft | 418 kts | 200° |
| 2026-05-05 10:45 | 40.02330 | -0.27460 | 36953 ft | 418 kts | 200° |
| 2026-05-05 10:46 | 39.96770 | -0.29632 | 36962 ft | 418 kts | 200° |
| 2026-05-05 10:46 | 39.91208 | -0.31798 | 36943 ft | 414 kts | 200° |
| 2026-05-05 10:47 | 39.85710 | -0.33936 | 36943 ft | 415 kts | 200° |
| 2026-05-05 10:47 | 39.80176 | -0.36088 | 36943 ft | 415 kts | 200° |
| 2026-05-05 10:48 | 39.74627 | -0.38242 | 36944 ft | 416 kts | 200° |
| 2026-05-05 10:48 | 39.69087 | -0.40388 | 36935 ft | 414 kts | 200° |
| 2026-05-05 10:49 | 39.63597 | -0.42510 | 36929 ft | 413 kts | 200° |
| 2026-05-05 10:49 | 39.58095 | -0.44632 | 36924 ft | 413 kts | 200° |
| 2026-05-05 10:50 | 39.52573 | -0.46759 | 36914 ft | 412 kts | 200° |
| 2026-05-05 10:50 | 39.47245 | -0.49269 | 36915 ft | 408 kts | 208° |
| 2026-05-05 10:51 | 39.42213 | -0.52713 | 36945 ft | 411 kts | 211° |
| 2026-05-05 10:51 | 39.37203 | -0.56221 | 36944 ft | 411 kts | 211° |
| 2026-05-05 10:52 | 39.32152 | -0.59733 | 36943 ft | 410 kts | 211° |
| 2026-05-05 10:52 | 39.27140 | -0.63213 | 36944 ft | 411 kts | 211° |
| 2026-05-05 10:53 | 39.22091 | -0.66711 | 36951 ft | 411 kts | 211° |
| 2026-05-05 10:53 | 39.17075 | -0.70180 | 36949 ft | 411 kts | 211° |
| 2026-05-05 10:54 | 39.12019 | -0.73672 | 36950 ft | 410 kts | 211° |
| 2026-05-05 10:54 | 39.06994 | -0.77137 | 36957 ft | 410 kts | 211° |
| 2026-05-05 10:55 | 39.01972 | -0.80595 | 36959 ft | 410 kts | 211° |
| 2026-05-05 10:55 | 38.96950 | -0.84047 | 36967 ft | 410 kts | 211° |
| 2026-05-05 10:56 | 38.91896 | -0.87515 | 36970 ft | 411 kts | 211° |
| 2026-05-05 10:56 | 38.86869 | -0.90958 | 36967 ft | 411 kts | 211° |
| 2026-05-05 10:57 | 38.81813 | -0.94415 | 36970 ft | 411 kts | 211° |
| 2026-05-05 10:57 | 38.76775 | -0.97855 | 36974 ft | 411 kts | 211° |
| 2026-05-05 10:58 | 38.71727 | -1.01294 | 36976 ft | 412 kts | 211° |
| 2026-05-05 10:58 | 38.66651 | -1.04750 | 36985 ft | 412 kts | 211° |
| 2026-05-05 10:59 | 38.61596 | -1.08186 | 36987 ft | 412 kts | 210° |
| 2026-05-05 10:59 | 38.56541 | -1.11617 | 36988 ft | 412 kts | 210° |
| 2026-05-05 11:00 | 38.51484 | -1.15042 | 36980 ft | 413 kts | 210° |
| 2026-05-05 11:00 | 38.46420 | -1.18466 | 36983 ft | 412 kts | 210° |
| 2026-05-05 11:01 | 38.41325 | -1.21905 | 36982 ft | 412 kts | 210° |
| 2026-05-05 11:01 | 38.36263 | -1.25317 | 36987 ft | 412 kts | 210° |
| 2026-05-05 11:02 | 38.31182 | -1.28739 | 36979 ft | 412 kts | 210° |
| 2026-05-05 11:02 | 38.26130 | -1.32131 | 36790 ft | 412 kts | 210° |
| 2026-05-05 11:02 | 38.23597 | -1.33831 | 36539 ft | 410 kts | 210° |
| 2026-05-05 11:03 | 38.21095 | -1.35510 | 36293 ft | 413 kts | 210° |
| 2026-05-05 11:03 | 38.18510 | -1.37246 | 36054 ft | 422 kts | 210° |
| 2026-05-05 11:03 | 38.15925 | -1.38977 | 35794 ft | 422 kts | 210° |
| 2026-05-05 11:03 | 38.13311 | -1.40723 | 35182 ft | 423 kts | 210° |
| 2026-05-05 11:04 | 38.10710 | -1.42460 | 34356 ft | 428 kts | 210° |
| 2026-05-05 11:04 | 38.08057 | -1.44231 | 33489 ft | 431 kts | 210° |
| 2026-05-05 11:04 | 38.05393 | -1.46006 | 32707 ft | 431 kts | 210° |
| 2026-05-05 11:04 | 38.02725 | -1.47783 | 31902 ft | 432 kts | 210° |
| 2026-05-05 11:05 | 38.00080 | -1.49544 | 31135 ft | 432 kts | 210° |
| 2026-05-05 11:05 | 37.97422 | -1.51313 | 30553 ft | 428 kts | 210° |
| 2026-05-05 11:05 | 37.94816 | -1.53046 | 29799 ft | 427 kts | 210° |
| 2026-05-05 11:05 | 37.92197 | -1.54787 | 29274 ft | 422 kts | 210° |
| 2026-05-05 11:06 | 37.89597 | -1.56510 | 28617 ft | 419 kts | 210° |
| 2026-05-05 11:06 | 37.87051 | -1.58176 | 28000 ft | 416 kts | 210° |
| 2026-05-05 11:06 | 37.84476 | -1.59848 | 27388 ft | 412 kts | 209° |
| 2026-05-05 11:06 | 37.81942 | -1.61492 | 26769 ft | 409 kts | 209° |
| 2026-05-05 11:07 | 37.79407 | -1.63138 | 26128 ft | 407 kts | 209° |
| 2026-05-05 11:07 | 37.76888 | -1.64772 | 25544 ft | 403 kts | 209° |
| 2026-05-05 11:07 | 37.74412 | -1.66379 | 24882 ft | 401 kts | 209° |
| 2026-05-05 11:07 | 37.71930 | -1.67989 | 24236 ft | 399 kts | 209° |
| 2026-05-05 11:08 | 37.69496 | -1.69567 | 23709 ft | 394 kts | 209° |
| 2026-05-05 11:08 | 37.67061 | -1.71145 | 23100 ft | 391 kts | 209° |
| 2026-05-05 11:08 | 37.64636 | -1.72714 | 22442 ft | 389 kts | 209° |
| 2026-05-05 11:08 | 37.62259 | -1.74252 | 21813 ft | 387 kts | 209° |
| 2026-05-05 11:09 | 37.59867 | -1.75797 | 21271 ft | 382 kts | 209° |
| 2026-05-05 11:09 | 37.57506 | -1.77322 | 20649 ft | 380 kts | 209° |
| 2026-05-05 11:09 | 37.55183 | -1.78823 | 20040 ft | 378 kts | 209° |
| 2026-05-05 11:09 | 37.52847 | -1.80331 | 19454 ft | 374 kts | 209° |
| 2026-05-05 11:10 | 37.50522 | -1.81831 | 18826 ft | 372 kts | 209° |
| 2026-05-05 11:10 | 37.48257 | -1.83289 | 18286 ft | 368 kts | 209° |
| 2026-05-05 11:10 | 37.45966 | -1.84762 | 17690 ft | 366 kts | 209° |
| 2026-05-05 11:10 | 37.43709 | -1.86213 | 17099 ft | 364 kts | 209° |
| 2026-05-05 11:11 | 37.41452 | -1.87665 | 16500 ft | 362 kts | 209° |
| 2026-05-05 11:11 | 37.39205 | -1.89108 | 15894 ft | 360 kts | 209° |
| 2026-05-05 11:11 | 37.36998 | -1.90525 | 15313 ft | 358 kts | 209° |
| 2026-05-05 11:11 | 37.34785 | -1.91944 | 14770 ft | 355 kts | 208° |
| 2026-05-05 11:12 | 37.32575 | -1.93361 | 14211 ft | 352 kts | 208° |
| 2026-05-05 11:12 | 37.30405 | -1.94751 | 13620 ft | 351 kts | 208° |
| 2026-05-05 11:12 | 37.28223 | -1.96148 | 13027 ft | 349 kts | 208° |
| 2026-05-05 11:12 | 37.26063 | -1.97530 | 12470 ft | 347 kts | 208° |
| 2026-05-05 11:13 | 37.23943 | -1.98888 | 11933 ft | 344 kts | 208° |
| 2026-05-05 11:13 | 37.21821 | -2.00287 | 11385 ft | 342 kts | 209° |
| 2026-05-05 11:13 | 37.19711 | -2.01707 | 10785 ft | 342 kts | 209° |
| 2026-05-05 11:13 | 37.17640 | -2.03106 | 10265 ft | 339 kts | 209° |
| 2026-05-05 11:14 | 37.15600 | -2.04479 | 10078 ft | 322 kts | 208° |
| 2026-05-05 11:14 | 37.13686 | -2.05760 | 9913 ft | 301 kts | 208° |
| 2026-05-05 11:14 | 37.11894 | -2.06957 | 9541 ft | 290 kts | 208° |
| 2026-05-05 11:14 | 37.10128 | -2.08139 | 9138 ft | 281 kts | 208° |
| 2026-05-05 11:15 | 37.08405 | -2.09293 | 8980 ft | 289 kts | 208° |
| 2026-05-05 11:15 | 37.06627 | -2.10479 | 8828 ft | 284 kts | 208° |
| 2026-05-05 11:15 | 37.04909 | -2.11622 | 8535 ft | 281 kts | 208° |
| 2026-05-05 11:15 | 37.03175 | -2.12759 | 8143 ft | 278 kts | 204° |
| 2026-05-05 11:16 | 37.01305 | -2.13233 | 7664 ft | 272 kts | 176° |
| 2026-05-05 11:16 | 36.99578 | -2.12587 | 7493 ft | 256 kts | 148° |
| 2026-05-05 11:16 | 36.98347 | -2.11048 | 7189 ft | 247 kts | 120° |
| 2026-05-05 11:16 | 36.97713 | -2.09096 | 6788 ft | 241 kts | 99° |
| 2026-05-05 11:17 | 36.97846 | -2.07045 | 6327 ft | 237 kts | 67° |
| 2026-05-05 11:17 | 36.98482 | -2.05177 | 5827 ft | 235 kts | 78° |
| 2026-05-05 11:17 | 36.98430 | -2.03162 | 5345 ft | 233 kts | 110° |
| 2026-05-05 11:17 | 36.97548 | -2.01509 | 4949 ft | 231 kts | 142° |
| 2026-05-05 11:18 | 36.96105 | -2.00710 | 4580 ft | 226 kts | 177° |
| 2026-05-05 11:18 | 36.94642 | -2.01175 | 4199 ft | 221 kts | 218° |
| 2026-05-05 11:18 | 36.93747 | -2.02692 | 3834 ft | 218 kts | 246° |
| 2026-05-05 11:18 | 36.93172 | -2.04465 | 3509 ft | 219 kts | 249° |
| 2026-05-05 11:19 | 36.92643 | -2.06224 | 3213 ft | 216 kts | 250° |
| 2026-05-05 11:19 | 36.92127 | -2.07961 | 3085 ft | 211 kts | 250° |
| 2026-05-05 11:19 | 36.91572 | -2.09706 | 3034 ft | 216 kts | 244° |
| 2026-05-05 11:19 | 36.91114 | -2.10812 | 3008 ft | 216 kts | 244° |
| 2026-05-05 11:20 | 36.90355 | -2.13023 | 3014 ft | 203 kts | 250° |
| 2026-05-05 11:20 | 36.89892 | -2.14725 | 3003 ft | 205 kts | 252° |
| 2026-05-05 11:20 | 36.89604 | -2.15852 | 3013 ft | 201 kts | 253° |
| 2026-05-05 11:20 | 36.89085 | -2.17945 | 3017 ft | 175 kts | 253° |
| 2026-05-05 11:21 | 36.88837 | -2.18949 | 3005 ft | 184 kts | 253° |
| 2026-05-05 11:21 | 36.88465 | -2.20457 | 3003 ft | 183 kts | 253° |
| 2026-05-05 11:21 | 36.88114 | -2.21896 | 2941 ft | 162 kts | 253° |
| 2026-05-05 11:21 | 36.87732 | -2.23581 | 2697 ft | 141 kts | 255° |
| 2026-05-05 11:22 | 36.87565 | -2.24344 | 2566 ft | 134 kts | 254° |
| 2026-05-05 11:22 | 36.87309 | -2.25478 | 2327 ft | 135 kts | 253° |
| 2026-05-05 11:22 | 36.87052 | -2.26585 | 2026 ft | 135 kts | 251° |
| 2026-05-05 11:22 | 36.86764 | -2.27696 | 1700 ft | 134 kts | 250° |
| 2026-05-05 11:23 | 36.86469 | -2.28805 | 1368 ft | 135 kts | 250° |
| 2026-05-05 11:23 | 36.86181 | -2.29924 | 1046 ft | 135 kts | 251° |
| 2026-05-05 11:23 | 36.85904 | -2.31023 | 797 ft | 134 kts | 251° |
| 2026-05-05 11:23 | 36.85627 | -2.32126 | 597 ft | 134 kts | 251° |
| 2026-05-05 11:24 | 36.85354 | -2.33235 | 425 ft | 134 kts | 251° |
| 2026-05-05 11:24 | 36.85071 | -2.34346 | 262 ft | 134 kts | 251° |
| 2026-05-05 11:24 | 36.84788 | -2.35456 | 99 ft | 133 kts | 251° |
| 2026-05-05 11:24 | 36.84525 | -2.36491 | 61 ft | 108 kts | 253° |
| 2026-05-05 11:25 | 36.84395 | -2.37010 | 55 ft | 17 kts | 252° |
| 2026-05-05 11:25 | 36.84415 | -2.37074 | 57 ft | 7 kts | 360° |
| 2026-05-05 11:25 | 36.84451 | -2.37054 | 61 ft | 4 kts | 44° |
| 2026-05-05 11:25 | 36.84455 | -2.37050 | 62 ft | 0 kts | 43° |
| 2026-05-05 11:26 | 36.84466 | -2.37035 | 61 ft | 10 kts | 46° |
| 2026-05-05 11:26 | 36.84531 | -2.36956 | 62 ft | 13 kts | 41° |
| 2026-05-05 11:26 | 36.84591 | -2.36903 | 63 ft | 9 kts | 8° |
| 2026-05-05 11:26 | 36.84641 | -2.36932 | 62 ft | 9 kts | 307° |
| 2026-05-05 11:27 | 36.84645 | -2.37005 | 61 ft | 7 kts | 257° |
| 2026-05-05 11:27 | 36.84632 | -2.37059 | 61 ft | 7 kts | 252° |
| 2026-05-05 11:27 | 36.84616 | -2.37129 | 61 ft | 10 kts | 253° |
| 2026-05-05 11:27 | 36.84594 | -2.37213 | 66 ft | 10 kts | 253° |
| 2026-05-05 11:28 | 36.84621 | -2.37270 | 60 ft | 11 kts | 335° |
| 2026-05-05 11:28 | 36.84658 | -2.37273 | 69 ft | 1 kts | 60° |
| 2026-05-05 11:28 | 36.84659 | -2.37266 | 64 ft | 1 kts | 80° |
| 2026-05-05 11:28 | 36.84655 | -2.37254 | 64 ft | 0 kts | 113° |
| 2026-05-05 11:29 | 36.84652 | -2.37246 | 69 ft | 0 kts | 112° |